createdAt,value
2023-03-03T00:01:22.074Z,37.63
2023-03-03T00:03:50.307Z,31.52
2023-03-03T00:06:18.543Z,35.63
2023-03-03T00:08:46.912Z,32.85
2023-03-03T00:11:15.277Z,39.13
2023-03-03T00:13:47.620Z,33.33
2023-03-03T00:16:22.158Z,34.92
2023-03-03T00:18:51.141Z,41.80
2023-03-03T00:21:29.308Z,32.20
2023-03-03T00:24:19.166Z,32.22
2023-03-03T00:26:49.056Z,31.58
2023-03-03T00:29:35.879Z,37.45
2023-03-03T00:32:27.252Z,34.38
2023-03-03T00:34:56.734Z,31.63
2023-03-03T00:37:31.507Z,36.90
2023-03-03T00:40:22.684Z,34.78
2023-03-03T00:42:53.139Z,35.63
2023-03-03T00:45:28.766Z,35.15
2023-03-03T00:47:59.409Z,39.10
2023-03-03T00:50:36.861Z,34.92
2023-03-03T00:53:07.935Z,34.42
2023-03-03T00:55:37.141Z,38.80
2023-03-03T00:58:06.131Z,33.22
2023-03-03T01:00:34.651Z,34.83
2023-03-03T01:03:06.813Z,34.03
2023-03-03T01:05:35.585Z,35.75
2023-03-03T01:08:04.317Z,37.13
2023-03-03T01:10:34.784Z,31.75
2023-03-03T01:13:03.088Z,30.40
2023-03-03T01:15:31.439Z,37.17
2023-03-03T01:17:59.697Z,35.75
2023-03-03T01:20:29.487Z,33.00
2023-03-03T01:22:57.711Z,36.53
2023-03-03T01:25:25.903Z,33.25
2023-03-03T01:27:54.134Z,35.90
2023-03-03T01:30:22.549Z,36.35
2023-03-03T01:32:50.836Z,40.70
2023-03-03T01:35:19.581Z,39.10
2023-03-03T01:37:49.224Z,36.03
2023-03-03T01:40:20.799Z,34.37
2023-03-03T01:42:49.394Z,33.60
2023-03-03T01:45:22.241Z,34.65
2023-03-03T01:47:55.021Z,33.72
2023-03-03T01:50:33.943Z,31.67
2023-03-03T01:53:07.623Z,34.97
2023-03-03T01:55:38.551Z,37.78
2023-03-03T01:58:10.535Z,34.45
2023-03-03T02:00:41.915Z,38.10
2023-03-03T02:03:10.983Z,37.13
2023-03-03T02:05:41.264Z,31.48
2023-03-03T02:08:14.636Z,37.95
2023-03-03T02:10:46.091Z,40.75
2023-03-03T02:13:14.659Z,33.28
2023-03-03T02:15:42.904Z,32.63
2023-03-03T02:18:13.458Z,42.25
2023-03-03T02:20:54.118Z,35.72
2023-03-03T02:23:28.426Z,34.13
2023-03-03T02:26:10.960Z,35.78
2023-03-03T02:28:40.265Z,32.22
2023-03-03T02:31:13.361Z,36.47
2023-03-03T02:33:42.768Z,36.22
2023-03-03T02:36:14.000Z,35.35
2023-03-03T02:38:47.624Z,41.22
2023-03-03T02:41:28.310Z,36.15
2023-03-03T02:44:00.478Z,34.05
2023-03-03T02:46:28.738Z,39.58
2023-03-03T02:48:56.904Z,33.22
2023-03-03T02:51:25.342Z,36.08
2023-03-03T02:53:53.682Z,33.92
2023-03-03T02:56:23.603Z,35.05
2023-03-03T02:58:52.255Z,29.77
2023-03-03T03:01:20.859Z,33.00
2023-03-03T03:03:49.470Z,37.22
2023-03-03T03:06:17.733Z,37.55
2023-03-03T03:08:46.011Z,34.83
2023-03-03T03:11:14.235Z,32.50
2023-03-03T03:13:43.864Z,33.28
2023-03-03T03:16:12.159Z,33.47
2023-03-03T03:18:41.733Z,32.53
2023-03-03T03:21:11.803Z,31.63
2023-03-03T03:23:40.473Z,32.22
2023-03-03T03:26:09.089Z,29.88
2023-03-03T03:28:37.987Z,28.85
2023-03-03T03:31:08.814Z,31.00
2023-03-03T03:33:37.658Z,30.95
2023-03-03T03:36:07.155Z,32.03
2023-03-03T03:38:36.775Z,30.35
2023-03-03T03:41:06.256Z,29.55
2023-03-03T03:43:34.883Z,30.90
2023-03-03T03:46:03.364Z,29.15
2023-03-03T03:48:33.068Z,33.53
2023-03-03T03:51:01.365Z,31.37
2023-03-03T03:53:29.616Z,33.93
2023-03-03T03:55:58.062Z,32.53
2023-03-03T03:58:26.317Z,28.23
2023-03-03T04:00:54.577Z,25.83
2023-03-03T04:03:23.006Z,27.57
2023-03-03T04:05:54.105Z,26.77
2023-03-03T04:08:22.426Z,27.77
2023-03-03T04:10:50.701Z,29.87
2023-03-03T04:13:18.925Z,27.50
2023-03-03T04:15:47.200Z,28.47
2023-03-03T04:18:15.607Z,26.03
2023-03-03T04:20:43.985Z,26.90
2023-03-03T04:23:14.888Z,25.63
2023-03-03T04:25:43.135Z,26.17
2023-03-03T04:28:11.383Z,29.23
2023-03-03T04:30:39.707Z,29.70
2023-03-03T04:33:08.314Z,28.58
2023-03-03T04:35:36.569Z,31.48
2023-03-03T04:38:05.101Z,29.08
2023-03-03T04:40:34.756Z,26.38
2023-03-03T04:43:02.991Z,26.02
2023-03-03T04:45:31.289Z,36.13
2023-03-03T04:47:59.548Z,29.20
2023-03-03T04:50:28.562Z,27.35
2023-03-03T04:52:56.799Z,26.20
2023-03-03T04:55:25.185Z,30.02
2023-03-03T04:57:54.912Z,34.22
2023-03-03T05:00:23.327Z,35.65
2023-03-03T05:02:51.593Z,35.03
2023-03-03T05:05:19.983Z,31.03
2023-03-03T05:07:48.223Z,28.20
2023-03-03T05:10:16.609Z,27.83
2023-03-03T05:12:45.359Z,27.67
2023-03-03T05:15:15.096Z,22.63
2023-03-03T05:17:43.418Z,26.17
2023-03-03T05:20:13.491Z,24.75
2023-03-03T05:22:41.825Z,21.73
2023-03-03T05:25:12.704Z,33.28
2023-03-03T05:27:40.948Z,30.40
2023-03-03T05:30:10.599Z,29.50
2023-03-03T05:32:40.426Z,32.83
2023-03-03T05:35:09.229Z,33.17
2023-03-03T05:37:37.437Z,31.42
2023-03-03T05:40:06.780Z,33.55
2023-03-03T05:42:35.066Z,32.63
2023-03-03T05:45:03.340Z,30.33
2023-03-03T05:47:31.564Z,27.73
2023-03-03T05:50:01.505Z,28.48
2023-03-03T05:52:30.031Z,27.58
2023-03-03T05:54:58.414Z,28.42
2023-03-03T05:57:26.761Z,24.58
2023-03-03T05:59:55.024Z,24.40
2023-03-03T06:02:23.478Z,27.90
2023-03-03T06:04:51.674Z,25.53
2023-03-03T06:07:21.271Z,28.30
2023-03-03T06:09:49.559Z,26.88
2023-03-03T06:12:17.884Z,32.15
2023-03-03T06:14:46.126Z,27.92
2023-03-03T06:17:14.356Z,27.23
2023-03-03T06:19:42.682Z,30.83
2023-03-03T06:22:11.240Z,29.97
2023-03-03T06:24:40.996Z,27.33
2023-03-03T06:27:10.333Z,30.70
2023-03-03T06:29:38.579Z,30.45
2023-03-03T06:32:07.372Z,27.05
2023-03-03T06:34:35.782Z,27.25
2023-03-03T06:37:04.145Z,31.52
2023-03-03T06:39:32.418Z,31.02
2023-03-03T06:42:02.115Z,28.45
2023-03-03T06:44:30.366Z,28.52
2023-03-03T06:46:59.027Z,27.58
2023-03-03T06:49:27.312Z,29.95
2023-03-03T06:51:55.852Z,34.63
2023-03-03T06:54:31.075Z,27.92
2023-03-03T06:57:06.895Z,27.00
2023-03-03T06:59:35.133Z,25.65
2023-03-03T07:02:12.245Z,25.80
2023-03-03T07:04:40.521Z,32.78
2023-03-03T07:07:17.973Z,29.38
2023-03-03T07:09:48.062Z,27.60
2023-03-03T07:12:22.268Z,30.92
2023-03-03T07:14:55.968Z,30.17
2023-03-03T07:17:26.359Z,36.10
2023-03-03T07:19:55.493Z,31.55
2023-03-03T07:22:26.859Z,34.22
2023-03-03T07:24:57.345Z,32.70
2023-03-03T07:27:28.361Z,33.67
2023-03-03T07:30:02.828Z,35.30
2023-03-03T07:32:40.380Z,34.72
2023-03-03T07:35:44.741Z,37.22
2023-03-03T07:38:24.459Z,33.08
2023-03-03T07:40:54.745Z,35.20
2023-03-03T07:43:34.907Z,36.25
2023-03-03T07:46:29.389Z,33.35
2023-03-03T07:48:58.839Z,35.42
2023-03-03T07:51:29.363Z,36.70
2023-03-03T07:54:14.834Z,35.28
2023-03-03T07:56:43.108Z,35.65
2023-03-03T07:59:22.258Z,37.72
2023-03-03T08:01:55.339Z,33.80
2023-03-03T08:04:26.447Z,36.20
2023-03-03T08:06:56.577Z,34.42
2023-03-03T08:09:44.059Z,31.60
2023-03-03T08:12:30.969Z,32.70
2023-03-03T08:15:15.962Z,33.38
2023-03-03T08:17:45.573Z,38.13
2023-03-03T08:20:44.573Z,35.80
2023-03-03T08:23:13.450Z,32.53
2023-03-03T08:25:42.926Z,34.05
2023-03-03T08:28:11.859Z,37.30
2023-03-03T08:30:41.582Z,31.83
2023-03-03T08:33:09.918Z,37.53
2023-03-03T08:35:38.374Z,37.05
2023-03-03T08:38:07.552Z,34.25
2023-03-03T08:40:36.276Z,38.28
2023-03-03T08:43:05.602Z,35.67
2023-03-03T08:45:34.900Z,39.28
2023-03-03T08:48:06.231Z,38.83
2023-03-03T08:50:34.597Z,38.83
2023-03-03T08:53:02.872Z,37.63
2023-03-03T08:55:31.159Z,38.88
2023-03-03T08:57:59.550Z,39.17
2023-03-03T09:00:27.826Z,35.05
2023-03-03T09:02:56.813Z,37.42
2023-03-03T09:05:26.845Z,41.33
2023-03-03T09:07:56.412Z,37.33
2023-03-03T09:10:29.557Z,42.20
2023-03-03T09:13:01.256Z,32.65
2023-03-03T09:18:01.308Z,38.78
2023-03-03T09:20:35.391Z,41.83
2023-03-03T09:23:31.445Z,47.10
2023-03-03T09:26:12.538Z,39.05
2023-03-03T09:28:40.844Z,38.22
2023-03-03T09:31:25.510Z,42.67
2023-03-03T09:33:57.679Z,40.58
2023-03-03T09:36:29.310Z,39.08
2023-03-03T09:38:58.515Z,45.85
2023-03-03T09:41:47.915Z,42.95
2023-03-03T09:44:38.056Z,40.25
2023-03-03T09:47:27.256Z,41.15
2023-03-03T09:50:06.716Z,36.92
2023-03-03T09:52:52.510Z,42.35
2023-03-03T09:55:37.010Z,40.95
2023-03-03T09:58:31.890Z,39.45
2023-03-03T10:01:11.288Z,38.47
2023-03-03T10:03:56.522Z,39.88
2023-03-03T10:06:29.244Z,43.13
2023-03-03T10:09:18.120Z,45.65
2023-03-03T10:11:50.817Z,43.15
2023-03-03T10:14:40.818Z,43.33
2023-03-03T10:17:24.096Z,41.30
2023-03-03T10:20:05.639Z,43.30
2023-03-03T10:22:45.471Z,43.33
2023-03-03T10:25:26.607Z,40.92
2023-03-03T10:28:30.450Z,44.20
2023-03-03T10:31:13.622Z,45.95
2023-03-03T10:33:51.068Z,43.53
2023-03-03T10:36:40.923Z,40.58
2023-03-03T10:39:26.659Z,42.90
2023-03-03T10:42:21.157Z,44.97
2023-03-03T10:45:23.322Z,45.35
2023-03-03T10:50:28.699Z,39.40
2023-03-03T10:53:11.042Z,43.38
2023-03-03T10:55:50.230Z,45.17
2023-03-03T10:58:52.960Z,43.53
2023-03-03T11:01:30.973Z,43.80
2023-03-03T11:04:26.498Z,46.88
2023-03-03T11:07:02.511Z,52.58
2023-03-03T11:09:43.321Z,42.63
2023-03-03T11:12:24.747Z,43.72
2023-03-03T11:15:07.462Z,40.08
2023-03-03T11:17:51.683Z,45.67
2023-03-03T11:20:32.764Z,48.00
2023-03-03T11:23:12.999Z,47.25
2023-03-03T11:25:50.674Z,45.92
2023-03-03T11:28:35.356Z,47.40
2023-03-03T11:31:19.797Z,45.33
2023-03-03T11:33:58.088Z,46.78
2023-03-03T11:36:34.626Z,47.00
2023-03-03T11:39:05.913Z,46.70
2023-03-03T11:41:37.749Z,49.28
2023-03-03T11:44:22.204Z,46.97
2023-03-03T11:46:55.114Z,50.35
2023-03-03T11:49:29.892Z,44.97
2023-03-03T11:52:06.643Z,48.75
2023-03-03T11:54:44.231Z,47.45
2023-03-03T11:57:20.467Z,47.10
2023-03-03T12:00:33.416Z,49.45
2023-03-03T12:03:17.852Z,46.83
2023-03-03T12:05:58.702Z,45.15
2023-03-03T12:08:44.306Z,42.85
2023-03-03T12:11:23.952Z,40.88
2023-03-03T12:13:59.193Z,48.25
2023-03-03T12:16:42.173Z,45.47
2023-03-03T12:19:45.104Z,42.63
2023-03-03T12:22:29.759Z,46.28
2023-03-03T12:25:19.744Z,41.42
2023-03-03T12:27:55.965Z,44.30
2023-03-03T12:30:38.627Z,43.80
2023-03-03T12:33:19.393Z,47.60
2023-03-03T12:35:57.985Z,44.60
2023-03-03T12:38:37.249Z,40.83
2023-03-03T12:41:09.958Z,46.92
2023-03-03T12:43:51.583Z,45.35
2023-03-03T12:46:29.313Z,43.63
2023-03-03T12:48:57.848Z,42.90
2023-03-03T12:51:39.037Z,45.25
2023-03-03T12:54:19.249Z,43.88
2023-03-03T12:56:53.062Z,45.88
2023-03-03T12:59:26.764Z,44.20
2023-03-03T13:02:06.880Z,42.05
2023-03-03T13:04:39.259Z,44.22
2023-03-03T13:07:17.127Z,42.67
2023-03-03T13:10:01.370Z,42.22
2023-03-03T13:12:39.481Z,40.13
2023-03-03T13:15:17.229Z,39.35
2023-03-03T13:17:56.912Z,41.78
2023-03-03T13:20:39.634Z,43.33
2023-03-03T13:23:14.666Z,42.60
2023-03-03T13:25:51.720Z,42.97
2023-03-03T13:28:29.952Z,38.05
2023-03-03T13:31:04.208Z,40.00
2023-03-03T13:33:36.658Z,44.03
2023-03-03T13:36:10.170Z,41.17
2023-03-03T13:38:43.761Z,44.20
2023-03-03T13:41:18.658Z,44.03
2023-03-03T13:43:50.772Z,41.92
2023-03-03T13:46:28.278Z,43.15
2023-03-03T13:49:15.678Z,42.88
2023-03-03T13:51:50.928Z,42.83
2023-03-03T13:54:41.103Z,46.03
2023-03-03T13:57:22.845Z,43.03
2023-03-03T14:00:05.537Z,43.97
2023-03-03T14:02:51.100Z,44.25
2023-03-03T14:05:27.189Z,42.40
2023-03-03T14:08:00.428Z,45.08
2023-03-03T14:10:33.367Z,42.85
2023-03-03T14:13:06.516Z,42.10
2023-03-03T14:15:37.881Z,46.22
2023-03-03T14:18:25.245Z,41.55
2023-03-03T14:20:55.051Z,45.15
2023-03-03T14:23:29.032Z,41.40
2023-03-03T14:26:09.701Z,42.75
2023-03-03T14:28:44.112Z,44.88
2023-03-03T14:31:19.647Z,39.92
2023-03-03T14:33:59.256Z,38.92
2023-03-03T14:36:30.842Z,40.03
2023-03-03T14:41:42.301Z,40.42
2023-03-03T14:44:26.967Z,38.35
2023-03-03T14:47:23.153Z,38.88
2023-03-03T14:49:52.078Z,42.40
2023-03-03T14:52:25.451Z,41.03
2023-03-03T14:54:55.717Z,41.80
2023-03-03T14:57:46.326Z,44.65
2023-03-03T15:00:31.324Z,42.78
2023-03-03T15:03:06.755Z,48.17
2023-03-03T15:05:35.860Z,41.58
2023-03-03T15:08:12.388Z,41.75
2023-03-03T15:10:42.031Z,44.15
2023-03-03T15:13:34.908Z,42.20
2023-03-03T15:16:10.221Z,42.95
2023-03-03T15:19:14.254Z,45.95
2023-03-03T15:21:49.494Z,46.67
2023-03-03T15:24:25.886Z,45.13
2023-03-03T15:27:02.357Z,44.83
2023-03-03T15:29:38.378Z,46.15
2023-03-03T15:32:14.918Z,44.08
2023-03-03T15:34:48.921Z,48.67
2023-03-03T15:37:29.658Z,45.15
2023-03-03T15:40:05.105Z,46.43
2023-03-03T15:42:39.342Z,49.25
2023-03-03T15:45:18.363Z,49.58
2023-03-03T15:48:04.076Z,44.95
2023-03-03T15:50:42.367Z,42.92
2023-03-03T15:53:24.696Z,45.97
2023-03-03T15:56:08.965Z,43.45
2023-03-03T15:59:18.675Z,46.72
2023-03-03T16:01:54.206Z,47.33
2023-03-03T16:04:27.279Z,46.05
2023-03-03T16:07:01.836Z,50.22
2023-03-03T16:09:44.541Z,45.67
2023-03-03T16:12:19.770Z,50.28
2023-03-03T16:15:14.353Z,44.92
2023-03-03T16:17:51.034Z,49.95
2023-03-03T16:20:24.502Z,44.55
2023-03-03T16:23:06.294Z,44.47
2023-03-03T16:25:49.273Z,48.40
2023-03-03T16:28:24.000Z,43.35
2023-03-03T16:30:59.528Z,46.03
2023-03-03T16:33:37.388Z,46.30
2023-03-03T16:36:13.115Z,49.35
2023-03-03T16:38:45.040Z,46.92
2023-03-03T16:41:16.852Z,46.17
2023-03-03T16:43:52.816Z,49.50
2023-03-03T16:46:31.284Z,45.90
2023-03-03T16:49:06.294Z,48.40
2023-03-03T16:51:43.619Z,45.65
2023-03-03T16:54:19.470Z,49.58
2023-03-03T16:56:53.616Z,47.10
2023-03-03T16:59:51.908Z,45.30
2023-03-03T17:03:04.473Z,49.53
2023-03-03T17:05:43.677Z,45.30
2023-03-03T17:08:32.476Z,46.13
2023-03-03T17:11:09.300Z,50.03
2023-03-03T17:14:04.692Z,45.08
2023-03-03T17:16:52.464Z,44.47
2023-03-03T17:19:33.558Z,45.50
2023-03-03T17:22:18.149Z,48.33
2023-03-03T17:25:01.523Z,44.20
2023-03-03T17:27:38.983Z,44.88
2023-03-03T17:30:15.652Z,49.90
2023-03-03T17:33:00.246Z,43.20
2023-03-03T17:35:47.875Z,50.63
2023-03-03T17:38:25.774Z,45.00
2023-03-03T17:41:04.332Z,46.92
2023-03-03T17:43:41.529Z,49.30
2023-03-03T17:46:17.096Z,47.08
2023-03-03T17:49:25.584Z,45.53
2023-03-03T17:52:09.146Z,52.47
2023-03-03T17:55:04.662Z,48.47
2023-03-03T17:57:45.710Z,48.33
2023-03-03T18:00:31.512Z,44.53
2023-03-03T18:03:29.742Z,51.42
2023-03-03T18:06:25.636Z,48.45
2023-03-03T18:09:15.156Z,51.78
2023-03-03T18:12:00.242Z,48.00
2023-03-03T18:14:53.410Z,51.28
2023-03-03T18:17:37.607Z,54.17
2023-03-03T18:20:37.642Z,50.58
2023-03-03T18:23:31.032Z,54.35
2023-03-03T18:26:01.086Z,49.85
2023-03-03T18:28:47.290Z,52.28
2023-03-03T18:31:25.162Z,50.20
2023-03-03T18:34:04.654Z,51.38
2023-03-03T18:36:55.189Z,47.88
2023-03-03T18:39:41.035Z,48.70
2023-03-03T18:42:43.500Z,47.22
2023-03-03T18:45:49.869Z,45.17
2023-03-03T18:48:20.116Z,52.42
2023-03-03T18:50:49.835Z,47.65
2023-03-03T18:53:22.621Z,46.35
2023-03-03T18:55:52.598Z,49.53
2023-03-03T18:58:33.995Z,48.83
2023-03-03T19:01:15.268Z,49.65
2023-03-03T19:04:17.837Z,49.72
2023-03-03T19:07:24.834Z,49.40
2023-03-03T19:09:58.295Z,45.75
2023-03-03T19:12:52.152Z,44.03
2023-03-03T19:15:57.231Z,48.45
2023-03-03T19:18:28.220Z,41.95
2023-03-03T19:20:59.718Z,45.53
2023-03-03T19:23:50.056Z,47.70
2023-03-03T19:26:38.365Z,49.40
2023-03-03T19:29:20.362Z,45.08
2023-03-03T19:31:53.966Z,46.20
2023-03-03T19:34:29.963Z,47.80
2023-03-03T19:37:12.708Z,43.63
2023-03-03T19:39:51.538Z,46.67
2023-03-03T19:42:36.039Z,47.83
2023-03-03T19:45:18.814Z,49.72
2023-03-03T19:47:52.703Z,46.65
2023-03-03T19:50:34.517Z,49.08
2023-03-03T19:55:44.583Z,48.70
2023-03-03T19:58:23.693Z,50.15
2023-03-03T20:00:58.487Z,53.72
2023-03-03T20:03:49.031Z,48.88
2023-03-03T20:06:37.835Z,44.65
2023-03-03T20:09:17.466Z,50.30
2023-03-03T20:11:59.263Z,54.17
2023-03-03T20:17:43.174Z,55.28
2023-03-03T20:20:41.818Z,43.28
2023-03-03T20:23:23.177Z,48.15
2023-03-03T20:25:57.114Z,47.15
2023-03-03T20:28:53.512Z,48.42
2023-03-03T20:31:29.006Z,48.08
2023-03-03T20:34:08.058Z,44.63
2023-03-03T20:36:44.029Z,39.75
2023-03-03T20:39:21.781Z,46.47
2023-03-03T20:42:06.085Z,48.03
2023-03-03T20:44:54.105Z,45.78
2023-03-03T20:47:35.211Z,45.03
2023-03-03T20:50:16.883Z,46.75
2023-03-03T20:52:57.277Z,43.90
2023-03-03T20:55:35.230Z,50.50
2023-03-03T20:58:08.685Z,47.10
2023-03-03T21:00:43.437Z,47.55
2023-03-03T21:03:17.801Z,44.28
2023-03-03T21:05:58.770Z,47.22
2023-03-03T21:08:45.763Z,43.92
2023-03-03T21:11:17.698Z,41.15
2023-03-03T21:13:47.655Z,46.60
2023-03-03T21:16:31.643Z,45.10
2023-03-03T21:19:01.268Z,44.80
2023-03-03T21:21:31.011Z,46.10
2023-03-03T21:23:59.717Z,35.97
2023-03-03T21:26:49.974Z,47.50
2023-03-03T21:29:20.981Z,38.80
2023-03-03T21:31:50.663Z,41.47
2023-03-03T21:34:20.746Z,43.95
2023-03-03T21:36:50.469Z,44.23
2023-03-03T21:39:25.092Z,42.88
2023-03-03T21:41:57.214Z,42.53
2023-03-03T21:44:40.300Z,42.65
2023-03-03T21:47:10.466Z,41.43
2023-03-03T21:49:42.449Z,53.55
2023-03-03T21:52:11.134Z,42.42
2023-03-03T21:54:39.368Z,45.63
2023-03-03T21:57:09.389Z,47.57
2023-03-03T21:59:37.851Z,47.50
2023-03-03T22:02:07.200Z,54.83
2023-03-03T22:04:38.407Z,67.07
2023-03-03T22:07:07.027Z,57.80
2023-03-03T22:09:35.560Z,56.58
2023-03-03T22:12:04.128Z,52.33
2023-03-03T22:14:33.990Z,44.45
2023-03-03T22:17:02.309Z,45.35
2023-03-03T22:19:30.693Z,42.60
2023-03-03T22:21:59.026Z,42.88
2023-03-03T22:24:27.431Z,41.85
2023-03-03T22:26:55.735Z,43.30
2023-03-03T22:29:24.211Z,39.00
2023-03-03T22:31:53.817Z,41.55
2023-03-03T22:34:22.357Z,44.42
2023-03-03T22:36:50.553Z,42.35
2023-03-03T22:39:18.826Z,45.20
2023-03-03T22:41:47.049Z,48.03
2023-03-03T22:44:15.251Z,41.20
2023-03-03T22:46:43.472Z,39.63
2023-03-03T22:49:13.040Z,42.10
2023-03-03T22:51:41.308Z,38.15
2023-03-03T22:54:09.530Z,42.67
2023-03-03T22:56:37.747Z,36.30
2023-03-03T22:59:06.192Z,37.78
2023-03-03T23:01:34.427Z,42.72
2023-03-03T23:04:02.716Z,47.05
2023-03-03T23:06:32.328Z,48.63
2023-03-03T23:09:00.566Z,43.93
2023-03-03T23:11:29.279Z,46.10
2023-03-03T23:13:57.484Z,43.83
2023-03-03T23:16:25.785Z,43.30
2023-03-03T23:18:54.046Z,46.13
2023-03-03T23:21:22.237Z,39.30
2023-03-03T23:23:52.023Z,42.13
2023-03-03T23:26:20.229Z,56.83
2023-03-03T23:28:48.473Z,48.73
2023-03-03T23:31:16.704Z,75.33
2023-03-03T23:33:44.947Z,65.23
2023-03-03T23:36:13.261Z,62.30
2023-03-03T23:38:43.165Z,56.97
2023-03-03T23:41:13.002Z,55.07
2023-03-03T23:43:41.171Z,46.07
2023-03-03T23:46:09.683Z,44.70
2023-03-03T23:48:37.891Z,50.30
2023-03-03T23:51:06.596Z,52.70
2023-03-03T23:53:34.861Z,55.43
2023-03-03T23:56:03.103Z,46.27
2023-03-03T23:58:32.751Z,43.87
